St Helen — SVCC4 — position and weather

sailwx.info

Track history (hours):
 
Tides and Currents Weather Stations Pressure Air Temp Water Temp Dewpoint Dewpoint Depression Visibility Wind Speed Wind Dir Waves Ship Positions

St Helen

Last reported at 2017-Dec-11 09:53 UTC. Time now 2017-Dec-14 00:43 UTC.
Position N 40°57' E 001°33'.

Length 243 m; draft 14.6 m.

Type: Tanker. MMSI: 241357000.

Date/timePositionNaut miles runAvg speedWind from/ knotsBaromVisibWave heightAir tempDewpointWater temp
2017-Dec-11 09:53N 40°57' E 001°33'3 4.0
2017-Dec-11 09:11N 40°59' E 001°36'1 4.0
2017-Dec-11 08:57N 40°59' E 001°37'2 3.6
2017-Dec-11 08:30N 41°01' E 001°38'1 2.8
2017-Dec-11 08:00N 41°01' E 001°40'2 3.3
2017-Dec-11 07:30N 41°02' E 001°42'1 2.6
2017-Dec-11 07:00N 41°03' E 001°43'2 4.7
2017-Dec-11 06:30N 41°04' E 001°46'1 1.2
2017-Dec-11 06:00N 41°04' E 001°46'1 2.0
2017-Dec-11 05:30N 41°04' E 001°45'1 2.1
2017-Dec-11 05:00N 41°04' E 001°44'1 2.1
2017-Dec-11 04:30N 41°03' E 001°42'1 2.1
2017-Dec-11 03:58N 41°03' E 001°41'1 2.2
2017-Dec-11 03:30N 41°03' E 001°40'1 2.2
2017-Dec-11 02:59N 41°02' E 001°38'2 2.1
2017-Dec-11 02:14N 41°02' E 001°36'7 1.6
2017-Dec-10 21:31N 40°59' E 001°28'3 0.5
2017-Dec-10 15:51N 40°58' E 001°24'2 4.5
2017-Dec-10 15:30N 40°59' E 001°26'3 4.4
2017-Dec-10 14:51N 41°01' E 001°28'2 5.3
2017-Dec-10 14:30N 41°03' E 001°29'3 3.9
2017-Dec-10 13:37N 41°06' E 001°32'0 1.1
2017-Dec-10 13:18N 41°06' E 001°31'1 1.1
2017-Dec-10 12:26N 41°05' E 001°30'219 8.4
2017-Dec-09 10:25N 37°44' W 000°22'512.9
2017-Dec-09 10:01N 37°39' W 000°25'612.6
2017-Dec-09 09:30N 37°34' W 000°30'712.6
2017-Dec-09 08:59N 37°30' W 000°36'612.6
2017-Dec-09 08:29N 37°25' W 000°42'612.5
2017-Dec-09 08:01N 37°21' W 000°47'612.5
2017-Dec-09 07:30N 37°17' W 000°53'712.4
2017-Dec-09 06:59N 37°13' W 000°59'42510.8
2017-Dec-07 15:41N 37°38' W 009°54'413.0
2017-Dec-07 15:22N 37°42' W 009°55'1812.9
2017-Dec-07 14:01N 37°59' W 009°60'1213.2
2017-Dec-07 13:06N 38°11' W 010°04'212.6
2017-Dec-07 12:56N 38°13' W 010°04'1712.8
2017-Dec-07 11:35N 38°30' W 010°09'112.7
2017-Dec-07 11:30N 38°31' W 010°09'612.6
2017-Dec-07 11:00N 38°37' W 010°12'612.6
2017-Dec-07 10:30N 38°43' W 010°13'612.6
2017-Dec-07 10:01N 38°49' W 010°13'713.0
2017-Dec-07 09:30N 38°56' W 010°12'712.9
2017-Dec-07 09:00N 39°02' W 010°11'612.6
2017-Dec-07 08:30N 39°09' W 010°12'912.8
2017-Dec-07 07:50N 39°17' W 010°11'412.6
2017-Dec-07 07:30N 39°21' W 010°12'  
2017-Dec-04 10:16N 50°25' W 000°27'310.7
2017-Dec-04 10:00N 50°26' W 000°22'510.4
2017-Dec-04 09:30N 50°27' W 000°15'510.2
2017-Dec-04 09:00N 50°29' W 000°07'510.0
2017-Dec-04 08:30N 50°30' E 000°01'510.2
2017-Dec-04 08:00N 50°31' E 000°09'510.6
2017-Dec-04 07:30N 50°33' E 000°17'611.4
2017-Dec-04 07:00N 50°34' E 000°25'612.4
2017-Dec-04 06:30N 50°36' E 000°35'713.2
2017-Dec-04 06:00N 50°39' E 000°44'713.9
2017-Dec-04 05:31N 50°43' E 000°53'714.2
2017-Dec-04 05:01N 50°47' E 001°02'714.1
2017-Dec-04 04:30N 50°51' E 001°11'713.6
2017-Dec-04 04:00N 50°56' E 001°19'713.2
2017-Dec-04 03:30N 51°01' E 001°26'611.9
2017-Dec-04 03:00N 51°05' E 001°32'611.1
2017-Dec-04 02:31N 51°09' E 001°38'510.3
2017-Dec-04 02:00N 51°13' E 001°44'510.2
2017-Dec-04 01:30N 51°17' E 001°49'510.3
2017-Dec-04 01:00N 51°22' E 001°52'510.4
2017-Dec-04 00:30N 51°26' E 001°55'611.2
2017-Dec-04 00:00N 51°30' E 002°02'611.7
2017-Dec-03 23:31N 51°35' E 002°08'611.9
2017-Dec-03 23:00N 51°39' E 002°15'812.7
2017-Dec-03 22:25N 51°44' E 002°23'31512.3
2017-Dec-02 20:52N 56°22' E 006°36'512.5
2017-Dec-02 20:29N 56°27' E 006°39'15010.6
2017-Dec-02 06:21N 57°49' E 010°30'511.6
2017-Dec-02 05:55N 57°50' E 010°39'410.7
2017-Dec-02 05:31N 57°49' E 010°48'510.8
2017-Dec-02 05:00N 57°44' E 010°48'4 7.5
2017-Dec-02 04:30N 57°42' E 010°42'1 1.2
2017-Dec-02 03:56N 57°42' E 010°41'0 0.0
2017-Dec-02 03:29N 57°42' E 010°41'0 0.0
2017-Dec-02 02:35N 57°42' E 010°41'0 0.0
2017-Dec-02 02:29N 57°42' E 010°41'0 0.0
2017-Dec-02 01:50N 57°42' E 010°41'0 0.0
2017-Dec-02 01:23N 57°42' E 010°41'0 0.0
2017-Dec-02 00:59N 57°42' E 010°41'0 0.0
2017-Dec-02 00:26N 57°42' E 010°41'0 0.0
2017-Dec-01 23:59N 57°42' E 010°41'0 0.1
2017-Dec-01 23:23N 57°42' E 010°41'0 0.2
2017-Dec-01 22:56N 57°42' E 010°41'0 0.1
2017-Dec-01 22:30N 57°42' E 010°41'2 4.0
2017-Dec-01 22:00N 57°42' E 010°45'3 6.2
2017-Dec-01 21:30N 57°39' E 010°48'5 9.1
2017-Dec-01 21:01N 57°37' E 010°55'612.1
2017-Dec-01 20:30N 57°35' E 011°06'612.2
2017-Dec-01 20:00N 57°32' E 011°17'612.2
2017-Dec-01 19:30N 57°28' E 011°25'612.1
2017-Dec-01 19:00N 57°23' E 011°29'612.3
2017-Dec-01 18:30N 57°17' E 011°33'612.2
2017-Dec-01 18:00N 57°11' E 011°37'612.0
2017-Dec-01 17:30N 57°06' E 011°41'612.0
2017-Dec-01 17:00N 56°60' E 011°44'611.7
2017-Dec-01 16:30N 56°54' E 011°48'611.4
2017-Dec-01 16:00N 56°49' E 011°51'  
Track history (hours):
 
Tides and Currents Weather Stations Pressure Air Temp Water Temp Dewpoint Dewpoint Depression Visibility Wind Speed Wind Dir Waves Ship Positions

St Helen

Last reported at 2017-Dec-11 09:53 UTC. Time now 2017-Dec-14 00:43 UTC.
Position N 40°57' E 001°33'.

Length 243 m; draft 14.6 m.

Type: Tanker. MMSI: 241357000.

Date/timePositionNaut miles runAvg speedWind from/ knotsBaromVisibWave heightAir tempDewpointWater temp
2017-Dec-11 09:53N 40°57' E 001°33'3 4.0
2017-Dec-11 09:11N 40°59' E 001°36'1 4.0
2017-Dec-11 08:57N 40°59' E 001°37'2 3.6
2017-Dec-11 08:30N 41°01' E 001°38'1 2.8
2017-Dec-11 08:00N 41°01' E 001°40'2 3.3
2017-Dec-11 07:30N 41°02' E 001°42'1 2.6
2017-Dec-11 07:00N 41°03' E 001°43'2 4.7
2017-Dec-11 06:30N 41°04' E 001°46'1 1.2
2017-Dec-11 06:00N 41°04' E 001°46'1 2.0
2017-Dec-11 05:30N 41°04' E 001°45'1 2.1
2017-Dec-11 05:00N 41°04' E 001°44'1 2.1
2017-Dec-11 04:30N 41°03' E 001°42'1 2.1
2017-Dec-11 03:58N 41°03' E 001°41'1 2.2
2017-Dec-11 03:30N 41°03' E 001°40'1 2.2
2017-Dec-11 02:59N 41°02' E 001°38'2 2.1
2017-Dec-11 02:14N 41°02' E 001°36'7 1.6
2017-Dec-10 21:31N 40°59' E 001°28'3 0.5
2017-Dec-10 15:51N 40°58' E 001°24'2 4.5
2017-Dec-10 15:30N 40°59' E 001°26'3 4.4
2017-Dec-10 14:51N 41°01' E 001°28'2 5.3
2017-Dec-10 14:30N 41°03' E 001°29'3 3.9
2017-Dec-10 13:37N 41°06' E 001°32'0 1.1
2017-Dec-10 13:18N 41°06' E 001°31'1 1.1
2017-Dec-10 12:26N 41°05' E 001°30'219 8.4
2017-Dec-09 10:25N 37°44' W 000°22'512.9
2017-Dec-09 10:01N 37°39' W 000°25'612.6
2017-Dec-09 09:30N 37°34' W 000°30'712.6
2017-Dec-09 08:59N 37°30' W 000°36'612.6
2017-Dec-09 08:29N 37°25' W 000°42'612.5
2017-Dec-09 08:01N 37°21' W 000°47'612.5
2017-Dec-09 07:30N 37°17' W 000°53'712.4
2017-Dec-09 06:59N 37°13' W 000°59'42510.8
2017-Dec-07 15:41N 37°38' W 009°54'413.0
2017-Dec-07 15:22N 37°42' W 009°55'1812.9
2017-Dec-07 14:01N 37°59' W 009°60'1213.2
2017-Dec-07 13:06N 38°11' W 010°04'212.6
2017-Dec-07 12:56N 38°13' W 010°04'1712.8
2017-Dec-07 11:35N 38°30' W 010°09'112.7
2017-Dec-07 11:30N 38°31' W 010°09'612.6
2017-Dec-07 11:00N 38°37' W 010°12'612.6
2017-Dec-07 10:30N 38°43' W 010°13'612.6
2017-Dec-07 10:01N 38°49' W 010°13'713.0
2017-Dec-07 09:30N 38°56' W 010°12'712.9
2017-Dec-07 09:00N 39°02' W 010°11'612.6
2017-Dec-07 08:30N 39°09' W 010°12'912.8
2017-Dec-07 07:50N 39°17' W 010°11'412.6
2017-Dec-07 07:30N 39°21' W 010°12'  
2017-Dec-04 10:16N 50°25' W 000°27'310.7
2017-Dec-04 10:00N 50°26' W 000°22'510.4
2017-Dec-04 09:30N 50°27' W 000°15'510.2
2017-Dec-04 09:00N 50°29' W 000°07'510.0
2017-Dec-04 08:30N 50°30' E 000°01'510.2
2017-Dec-04 08:00N 50°31' E 000°09'510.6
2017-Dec-04 07:30N 50°33' E 000°17'611.4
2017-Dec-04 07:00N 50°34' E 000°25'612.4
2017-Dec-04 06:30N 50°36' E 000°35'713.2
2017-Dec-04 06:00N 50°39' E 000°44'713.9
2017-Dec-04 05:31N 50°43' E 000°53'714.2
2017-Dec-04 05:01N 50°47' E 001°02'714.1
2017-Dec-04 04:30N 50°51' E 001°11'713.6
2017-Dec-04 04:00N 50°56' E 001°19'713.2
2017-Dec-04 03:30N 51°01' E 001°26'611.9
2017-Dec-04 03:00N 51°05' E 001°32'611.1
2017-Dec-04 02:31N 51°09' E 001°38'510.3
2017-Dec-04 02:00N 51°13' E 001°44'510.2
2017-Dec-04 01:30N 51°17' E 001°49'510.3
2017-Dec-04 01:00N 51°22' E 001°52'510.4
2017-Dec-04 00:30N 51°26' E 001°55'611.2
2017-Dec-04 00:00N 51°30' E 002°02'611.7
2017-Dec-03 23:31N 51°35' E 002°08'611.9
2017-Dec-03 23:00N 51°39' E 002°15'812.7
2017-Dec-03 22:25N 51°44' E 002°23'31512.3
2017-Dec-02 20:52N 56°22' E 006°36'512.5
2017-Dec-02 20:29N 56°27' E 006°39'15010.6
2017-Dec-02 06:21N 57°49' E 010°30'511.6
2017-Dec-02 05:55N 57°50' E 010°39'410.7
2017-Dec-02 05:31N 57°49' E 010°48'510.8
2017-Dec-02 05:00N 57°44' E 010°48'4 7.5
2017-Dec-02 04:30N 57°42' E 010°42'1 1.2
2017-Dec-02 03:56N 57°42' E 010°41'0 0.0
2017-Dec-02 03:29N 57°42' E 010°41'0 0.0
2017-Dec-02 02:35N 57°42' E 010°41'0 0.0
2017-Dec-02 02:29N 57°42' E 010°41'0 0.0
2017-Dec-02 01:50N 57°42' E 010°41'0 0.0
2017-Dec-02 01:23N 57°42' E 010°41'0 0.0
2017-Dec-02 00:59N 57°42' E 010°41'0 0.0
2017-Dec-02 00:26N 57°42' E 010°41'0 0.0
2017-Dec-01 23:59N 57°42' E 010°41'0 0.1
2017-Dec-01 23:23N 57°42' E 010°41'0 0.2
2017-Dec-01 22:56N 57°42' E 010°41'0 0.1
2017-Dec-01 22:30N 57°42' E 010°41'2 4.0
2017-Dec-01 22:00N 57°42' E 010°45'3 6.2
2017-Dec-01 21:30N 57°39' E 010°48'5 9.1
2017-Dec-01 21:01N 57°37' E 010°55'612.1
2017-Dec-01 20:30N 57°35' E 011°06'612.2
2017-Dec-01 20:00N 57°32' E 011°17'612.2
2017-Dec-01 19:30N 57°28' E 011°25'612.1
2017-Dec-01 19:00N 57°23' E 011°29'612.3
2017-Dec-01 18:30N 57°17' E 011°33'612.2
2017-Dec-01 18:00N 57°11' E 011°37'612.0
2017-Dec-01 17:30N 57°06' E 011°41'612.0
2017-Dec-01 17:00N 56°60' E 011°44'611.7
2017-Dec-01 16:30N 56°54' E 011°48'611.4
2017-Dec-01 16:00N 56°49' E 011°51'  

Dump ship's entire track history